Time;durP1;ratioP1;P1;durP2;ratioP2;P2;SDS_P1;SDS_P2;PMS_P1;PMS_P2;Temp;Humidity;BMP_temperature;BMP_pressure;BME280_temperature;BME280_humidity;BME280_pressure;Samples;Min_cycle;Max_cycle;Signal;HPM_P1;HPM_P2
2021/07/11 00:01:54;;;;;;;0.15;0.15;;;;;;;24.25;69.15;99846.78;4891529;29;20037;-75
2021/07/11 00:04:19;;;;;;;0.10;0.10;;;;;;;24.29;68.90;99844.38;4893129;29;20048;-76
2021/07/11 00:06:45;;;;;;;0.10;0.10;;;;;;;24.28;69.19;99851.84;4892593;29;20045;-75
2021/07/11 00:09:12;;;;;;;0.10;0.10;;;;;;;24.26;69.37;99853.13;4887936;29;20306;-76
2021/07/11 00:11:38;;;;;;;0.10;0.10;;;;;;;24.22;69.17;99861.06;4900361;29;20534;-75
2021/07/11 00:14:04;;;;;;;0.22;0.10;;;;;;;24.16;69.39;99850.09;4885832;29;20049;-76
2021/07/11 00:16:32;;;;;;;0.10;0.10;;;;;;;24.10;69.18;99857.44;4886783;29;20048;-75
2021/07/11 00:18:58;;;;;;;0.10;0.10;;;;;;;24.06;69.59;99859.81;4905055;29;20057;-76
2021/07/11 00:21:24;;;;;;;0.10;0.10;;;;;;;24.00;70.41;99860.75;4891691;29;20160;-75
2021/07/11 00:23:50;;;;;;;0.10;0.10;;;;;;;23.98;70.01;99859.28;4887168;29;20143;-75
2021/07/11 00:26:16;;;;;;;0.10;0.10;;;;;;;23.85;70.01;99848.44;4843387;29;20037;-76
2021/07/11 00:28:42;;;;;;;0.10;0.10;;;;;;;23.82;70.87;99853.34;4874864;29;20666;-75
2021/07/11 00:31:08;;;;;;;0.15;0.15;;;;;;;23.77;70.49;99861.50;4881212;29;20037;-76
2021/07/11 00:33:35;;;;;;;0.77;0.10;;;;;;;23.79;69.99;99862.06;4891976;29;20224;-76
2021/07/11 00:36:01;;;;;;;0.10;0.10;;;;;;;23.77;69.38;99861.50;4886953;29;20427;-76
2021/07/11 00:38:27;;;;;;;0.20;0.20;;;;;;;23.77;69.75;99863.41;4881622;29;20052;-75
2021/07/11 00:40:57;;;;;;;0.10;0.10;;;;;;;23.74;69.33;99856.41;4887466;29;20045;-75
2021/07/11 00:43:23;;;;;;;0.10;0.10;;;;;;;23.78;69.03;99859.56;4891045;29;20083;-75
2021/07/11 00:45:51;;;;;;;0.10;0.10;;;;;;;23.76;69.12;99865.31;4889366;29;20060;-77
2021/07/11 00:48:20;;;;;;;0.20;0.20;;;;;;;23.71;69.01;99856.03;4858044;29;20123;-77
2021/07/11 00:50:47;;;;;;;0.10;0.10;;;;;;;23.73;69.67;99871.31;4889401;29;20495;-76
2021/07/11 00:53:15;;;;;;;0.30;0.10;;;;;;;23.69;69.13;99864.53;4905920;29;20349;-75
2021/07/11 00:55:42;;;;;;;0.20;0.10;;;;;;;23.66;69.27;99859.47;4891724;29;20080;-75
2021/07/11 00:58:09;;;;;;;0.20;0.20;;;;;;;23.64;68.65;99861.63;4875787;29;20127;-75
2021/07/11 01:00:55;;;;;;;0.10;0.10;;;;;;;23.66;68.69;99859.47;4881343;29;20082;-77
2021/07/11 01:03:31;;;;;;;0.10;0.10;;;;;;;23.55;68.71;99851.97;4874653;29;20519;-76
2021/07/11 01:05:58;;;;;;;0.10;0.10;;;;;;;23.62;68.74;99873.94;4889410;29;20055;-78
2021/07/11 01:08:48;;;;;;;0.10;0.10;;;;;;;23.56;68.25;99870.22;4871165;29;20108;-76
2021/07/11 01:11:16;;;;;;;0.10;0.10;;;;;;;23.59;67.94;99864.25;4875506;29;20534;-77
2021/07/11 01:13:43;;;;;;;0.10;0.10;;;;;;;23.58;68.20;99870.81;4890202;29;20435;-76
2021/07/11 01:16:15;;;;;;;0.10;0.10;;;;;;;23.54;68.08;99872.34;4888121;29;20051;-76
2021/07/11 01:18:45;;;;;;;0.20;0.20;;;;;;;23.52;68.16;99874.50;4887859;29;20135;-76
2021/07/11 01:21:15;;;;;;;0.10;0.10;;;;;;;23.54;68.06;99875.09;4887100;29;20175;-76
2021/07/11 01:23:58;;;;;;;0.10;0.10;;;;;;;23.55;68.60;99879.56;4850325;29;20052;-76
2021/07/11 01:26:28;;;;;;;0.17;0.17;;;;;;;23.55;68.52;99877.66;4885985;29;20643;-75
2021/07/11 01:28:56;;;;;;;0.65;0.10;;;;;;;23.55;68.34;99874.91;4886409;29;20087;-76
2021/07/11 01:31:25;;;;;;;0.10;0.10;;;;;;;23.55;68.21;99879.56;4888888;29;20057;-77
2021/07/11 01:33:55;;;;;;;0.28;0.20;;;;;;;23.58;68.46;99879.97;4867417;29;20049;-75
2021/07/11 01:36:22;;;;;;;0.13;0.13;;;;;;;23.47;68.98;99872.41;4873143;29;20056;-76
2021/07/11 01:38:50;;;;;;;0.10;0.10;;;;;;;23.52;68.35;99880.03;4885241;29;20045;-74
2021/07/11 01:41:18;;;;;;;0.10;0.10;;;;;;;23.53;68.14;99878.94;4859713;29;20060;-77
2021/07/11 01:43:46;;;;;;;0.47;0.20;;;;;;;23.52;68.71;99880.03;4889261;29;20044;-76
2021/07/11 01:46:12;;;;;;;0.10;0.10;;;;;;;23.55;68.07;99880.41;4873789;29;20044;-76
2021/07/11 01:48:39;;;;;;;0.20;0.20;;;;;;;23.52;68.82;99880.88;4871417;29;20049;-77
2021/07/11 01:51:06;;;;;;;0.17;0.17;;;;;;;23.50;68.91;99882.16;4891520;29;20060;-76
2021/07/11 01:53:38;;;;;;;0.10;0.10;;;;;;;23.47;68.83;99882.63;4860132;29;20562;-75
2021/07/11 01:56:06;;;;;;;0.10;0.10;;;;;;;23.43;68.60;99886.91;4884150;29;20033;-75
2021/07/11 01:58:33;;;;;;;0.10;0.10;;;;;;;23.44;68.35;99891.34;4864722;29;20325;-75
2021/07/11 02:01:04;;;;;;;0.20;0.20;;;;;;;23.41;68.41;99883.56;4897230;29;20514;-74
2021/07/11 02:03:30;;;;;;;0.17;0.17;;;;;;;23.46;68.70;99886.47;4858386;29;20033;-75
2021/07/11 02:06:10;;;;;;;0.10;0.10;;;;;;;23.39;68.65;99893.97;4888259;29;20116;-75
2021/07/11 02:08:41;;;;;;;0.20;0.20;;;;;;;23.40;68.72;99888.25;4889243;29;20061;-78
2021/07/11 02:11:13;;;;;;;0.10;0.10;;;;;;;23.37;68.27;99890.63;4889159;29;20045;-75
2021/07/11 02:13:59;;;;;;;0.10;0.10;;;;;;;23.34;68.40;99887.22;4865076;29;20104;-73
2021/07/11 02:16:30;;;;;;;;;;;;;;;23.33;68.84;99884.72;4910889;29;20185;-75
2021/07/11 02:18:58;;;;;;;0.20;0.20;;;;;;;23.31;68.04;99884.91;4887688;29;19927;-75
2021/07/11 02:21:28;;;;;;;0.20;0.20;;;;;;;23.34;68.18;99887.22;4872280;29;20048;-74
2021/07/11 02:23:57;;;;;;;0.52;0.30;;;;;;;23.31;68.25;99887.69;4873656;29;20072;-74
2021/07/11 02:26:23;;;;;;;0.20;0.20;;;;;;;23.30;67.98;99888.75;4873271;29;20036;-75
2021/07/11 02:28:53;;;;;;;0.65;0.20;;;;;;;23.26;68.34;99890.28;4888654;29;20110;-75
2021/07/11 02:31:19;;;;;;;0.25;0.20;;;;;;;23.30;68.43;99888.75;4889658;29;20064;-75
2021/07/11 02:33:46;;;;;;;0.10;0.10;;;;;;;23.32;67.77;99889.34;4893188;29;20044;-75
2021/07/11 02:36:28;;;;;;;0.13;0.10;;;;;;;23.29;68.15;99887.06;4892134;29;20076;-74
2021/07/11 02:39:07;;;;;;;0.20;0.20;;;;;;;23.30;67.85;99894.28;4873379;29;20444;-75
2021/07/11 02:41:41;;;;;;;0.20;0.20;;;;;;;23.29;68.27;99895.34;4884767;29;20281;-76
2021/07/11 02:44:10;;;;;;;0.10;0.10;;;;;;;23.29;68.25;99891.72;4889270;29;20059;-75
2021/07/11 02:46:44;;;;;;;0.10;0.10;;;;;;;23.29;67.93;99892.59;4876453;29;20075;-76
2021/07/11 02:49:14;;;;;;;0.20;0.20;;;;;;;23.30;67.75;99893.44;4889761;29;20044;-76
2021/07/11 02:51:45;;;;;;;0.20;0.20;;;;;;;23.31;67.79;99893.19;4893076;29;20135;-76
2021/07/11 02:54:16;;;;;;;0.40;0.20;;;;;;;23.31;67.97;99890.44;4875600;29;20059;-75
2021/07/11 02:56:44;;;;;;;0.20;0.20;;;;;;;23.24;67.65;99895.19;4889514;29;20076;-75
2021/07/11 02:59:14;;;;;;;0.10;0.10;;;;;;;23.27;67.29;99886.44;4892593;29;20076;-76
2021/07/11 03:01:44;;;;;;;0.20;0.20;;;;;;;23.27;67.63;99886.44;4876357;29;20510;-75
2021/07/11 03:04:14;;;;;;;0.20;0.20;;;;;;;23.31;67.71;99886.84;4906892;29;20108;-75
2021/07/11 03:06:41;;;;;;;0.25;0.20;;;;;;;23.31;67.32;99884.91;4870945;29;20037;-76
2021/07/11 03:09:08;;;;;;;0.20;0.20;;;;;;;23.29;67.12;99898.13;4889869;29;20076;-78
2021/07/11 03:11:40;;;;;;;0.20;0.20;;;;;;;23.36;66.70;99892.50;4893112;29;20107;-75
2021/07/11 03:14:09;;;;;;;0.20;0.20;;;;;;;23.48;66.18;99895.38;4893015;29;20052;-75
2021/07/11 03:16:41;;;;;;;0.20;0.20;;;;;;;23.51;65.46;99895.75;4888512;29;20063;-76
2021/07/11 03:19:12;;;;;;;0.20;0.20;;;;;;;23.72;65.26;99902.72;4890124;29;20095;-75
2021/07/11 03:21:38;;;;;;;0.20;0.20;;;;;;;23.96;64.50;99897.34;4874874;29;20097;-74
2021/07/11 03:24:06;;;;;;;0.30;0.20;;;;;;;23.97;63.64;99899.03;4888815;29;20522;-75
2021/07/11 03:26:35;;;;;;;0.20;0.20;;;;;;;23.89;63.99;99891.06;4885758;29;20041;-75
2021/07/11 03:29:12;;;;;;;;;;;;;;;23.97;63.68;99890.75;4890262;29;20136;-76
2021/07/11 03:31:39;;;;;;;0.20;0.20;;;;;;;24.06;63.51;99897.66;4875135;29;20055;-75
2021/07/11 03:34:05;;;;;;;0.25;0.20;;;;;;;24.19;63.67;99891.06;4890264;29;20052;-76
2021/07/11 03:36:32;;;;;;;0.20;0.20;;;;;;;24.26;62.82;99898.19;4890021;29;20048;-75
2021/07/11 03:39:12;;;;;;;0.20;0.20;;;;;;;24.33;62.79;99898.09;4855195;29;20045;-76
2021/07/11 03:41:41;;;;;;;0.20;0.20;;;;;;;24.41;62.13;99899.72;4874156;29;20079;-75
2021/07/11 03:44:11;;;;;;;0.30;0.30;;;;;;;24.64;61.87;99888.69;4871289;29;20052;-75
2021/07/11 03:46:39;;;;;;;0.30;0.30;;;;;;;24.70;60.87;99885.00;4885595;29;20076;-74
2021/07/11 03:49:08;;;;;;;0.30;0.30;;;;;;;25.26;59.47;99880.81;4875124;29;20040;-75
2021/07/11 03:51:36;;;;;;;0.22;0.22;;;;;;;25.68;58.41;99883.41;4889645;29;20049;-75
2021/07/11 03:54:03;;;;;;;0.30;0.30;;;;;;;26.07;56.87;99891.16;4886944;29;20426;-76
2021/07/11 03:56:31;;;;;;;0.30;0.30;;;;;;;26.39;55.57;99891.47;4890267;29;20055;-77
2021/07/11 03:58:58;;;;;;;0.40;0.25;;;;;;;26.62;55.56;99885.84;4885737;29;20040;-80
2021/07/11 04:01:33;;;;;;;0.30;0.30;;;;;;;26.71;55.16;99888.19;4892319;29;20043;-77
2021/07/11 04:04:01;;;;;;;0.85;0.20;;;;;;;26.71;54.33;99886.25;4893477;29;20067;-76
2021/07/11 04:06:31;;;;;;;0.20;0.20;;;;;;;26.60;54.06;99890.78;4892103;29;20060;-75
2021/07/11 04:08:59;;;;;;;0.88;0.20;;;;;;;26.19;55.42;99894.72;4887426;29;20040;-76
2021/07/11 04:11:25;;;;;;;0.20;0.20;;;;;;;26.30;54.38;99896.59;4884898;29;20096;-76
2021/07/11 04:13:51;;;;;;;0.20;0.20;;;;;;;26.27;54.63;99899.88;4882642;29;20053;-77
2021/07/11 04:16:17;;;;;;;0.32;0.20;;;;;;;26.22;54.90;99899.78;4885916;29;20562;-76
2021/07/11 04:18:48;;;;;;;0.20;0.20;;;;;;;26.17;54.78;99897.72;4890019;29;20123;-78
2021/07/11 04:21:15;;;;;;;0.30;0.30;;;;;;;26.39;54.48;99899.81;4872623;29;20045;-78
2021/07/11 04:23:43;;;;;;;0.47;0.40;;;;;;;26.79;53.47;99890.56;4857298;29;20079;-78
2021/07/11 04:26:11;;;;;;;1.25;0.30;;;;;;;27.19;52.72;99893.16;4872175;29;20057;-77
2021/07/11 04:28:40;;;;;;;0.40;0.40;;;;;;;27.55;51.63;99902.00;4886621;29;20101;-79
2021/07/11 04:31:06;;;;;;;0.40;0.40;;;;;;;27.97;50.54;99905.06;4886696;29;20571;-77
2021/07/11 04:33:33;;;;;;;0.85;0.40;;;;;;;28.27;49.63;99903.75;4886980;29;20075;-76
2021/07/11 04:36:01;;;;;;;0.88;0.40;;;;;;;28.59;48.42;99910.25;4889024;29;20048;-76
2021/07/11 04:38:28;;;;;;;0.40;0.40;;;;;;;28.92;47.33;99899.94;4891073;29;20067;-76
2021/07/11 04:40:54;;;;;;;0.50;0.47;;;;;;;29.12;45.43;99910.44;4891453;29;20120;-77
2021/07/11 04:43:20;;;;;;;0.40;0.40;;;;;;;29.43;44.91;99911.47;4887776;29;20151;-75
2021/07/11 04:45:47;;;;;;;0.40;0.40;;;;;;;29.78;43.97;99901.66;4873868;29;20049;-79
2021/07/11 04:48:14;;;;;;;0.30;0.30;;;;;;;30.15;43.30;99900.69;4892581;29;20155;-78
2021/07/11 04:50:50;;;;;;;0.30;0.30;;;;;;;30.29;42.66;99906.63;4891331;29;20075;-78
2021/07/11 04:53:16;;;;;;;0.50;0.40;;;;;;;30.34;41.33;99907.44;4891367;29;20044;-76
2021/07/11 04:55:44;;;;;;;0.40;0.40;;;;;;;30.57;41.51;99911.69;4890994;29;20539;-77
2021/07/11 04:58:09;;;;;;;0.40;0.40;;;;;;;30.84;40.97;99903.09;4893078;29;20064;-77
2021/07/11 05:00:35;;;;;;;1.48;0.70;;;;;;;30.95;40.61;99915.91;4886747;29;20048;-76
2021/07/11 05:03:01;;;;;;;0.40;0.40;;;;;;;31.30;40.10;99911.44;4890942;29;20056;-76
2021/07/11 05:05:28;;;;;;;0.30;0.30;;;;;;;31.29;40.10;99909.75;4888814;29;20045;-80
2021/07/11 05:07:54;;;;;;;0.55;0.40;;;;;;;31.63;38.78;99909.13;4884699;29;20106;-78
2021/07/11 05:10:20;;;;;;;0.40;0.40;;;;;;;31.86;38.71;99919.72;4890727;29;20044;-76
2021/07/11 05:12:46;;;;;;;0.50;0.50;;;;;;;31.81;37.16;99913.25;4891516;29;20396;-75
2021/07/11 05:15:12;;;;;;;0.32;0.32;;;;;;;32.08;37.21;99922.13;4884846;29;20400;-77
2021/07/11 05:17:38;;;;;;;0.40;0.40;;;;;;;32.40;35.55;99923.66;4891491;29;20480;-77
2021/07/11 05:20:06;;;;;;;0.63;0.40;;;;;;;32.56;36.08;99922.44;4886218;29;20456;-77
2021/07/11 05:22:31;;;;;;;0.32;0.32;;;;;;;32.81;35.00;99927.03;4886601;29;20112;-79
2021/07/11 05:24:58;;;;;;;0.40;0.40;;;;;;;33.04;35.07;99921.81;4886127;29;20045;-78
2021/07/11 05:27:24;;;;;;;0.40;0.40;;;;;;;33.10;34.25;99926.25;4885868;29;20109;-77
2021/07/11 05:29:50;;;;;;;0.50;0.50;;;;;;;33.43;33.89;99918.94;4891632;29;20132;-78
2021/07/11 05:32:16;;;;;;;0.45;0.45;;;;;;;33.57;33.90;99919.09;4887736;29;20055;-80
2021/07/11 05:34:42;;;;;;;0.55;0.43;;;;;;;33.89;33.04;99920.38;4892080;29;20426;-79
2021/07/11 05:37:08;;;;;;;0.40;0.40;;;;;;;33.95;32.89;99916.41;4890682;29;20041;-80
2021/07/11 05:39:35;;;;;;;0.40;0.40;;;;;;;34.35;32.12;99923.47;4906101;29;20063;-78
2021/07/11 05:42:01;;;;;;;0.77;0.45;;;;;;;34.61;31.33;99921.13;4889383;29;20120;-78
2021/07/11 05:44:27;;;;;;;0.77;0.40;;;;;;;34.84;30.90;99921.31;4887995;29;20045;-77
2021/07/11 05:46:54;;;;;;;0.40;0.40;;;;;;;34.82;30.84;99926.44;4877092;29;20063;-81
2021/07/11 05:49:20;;;;;;;0.50;0.50;;;;;;;35.09;30.84;99926.56;4883207;29;20196;-81
2021/07/11 05:51:46;;;;;;;0.50;0.50;;;;;;;35.18;30.46;99927.53;4856997;29;20089;-79
2021/07/11 05:54:12;;;;;;;0.50;0.50;;;;;;;35.34;29.82;99922.44;4893743;29;20040;-78
2021/07/11 05:56:38;;;;;;;0.45;0.45;;;;;;;35.52;29.26;99939.59;4896139;29;20088;-79
2021/07/11 05:59:04;;;;;;;0.50;0.50;;;;;;;35.91;28.77;99927.84;4893708;29;20139;-80
2021/07/11 06:01:30;;;;;;;0.55;0.55;;;;;;;36.04;28.10;99932.66;4895695;29;20051;-79
2021/07/11 06:03:56;;;;;;;0.50;0.50;;;;;;;36.33;27.73;99931.47;4889294;29;20064;-82
2021/07/11 06:06:23;;;;;;;0.50;0.50;;;;;;;36.42;28.04;99935.19;4865111;29;20483;-80
2021/07/11 06:08:50;;;;;;;0.45;0.45;;;;;;;36.65;27.63;99934.13;4896879;29;20045;-80
2021/07/11 06:11:16;;;;;;;0.77;0.60;;;;;;;36.75;27.52;99933.06;4864632;29;20451;-83
2021/07/11 06:13:43;;;;;;;0.50;0.50;;;;;;;37.10;26.95;99927.69;4882423;29;20060;-82
2021/07/11 06:16:09;;;;;;;0.50;0.50;;;;;;;36.53;27.85;99936.69;4896466;29;20053;-82
2021/07/11 06:18:35;;;;;;;0.80;0.60;;;;;;;36.38;29.15;99928.53;4883619;29;20051;-81
2021/07/11 06:21:01;;;;;;;0.50;0.50;;;;;;;36.94;27.17;99932.88;4894424;29;20041;-82
2021/07/11 06:23:27;;;;;;;0.50;0.50;;;;;;;37.23;26.17;99940.06;4866258;29;20047;-81
2021/07/11 06:25:54;;;;;;;0.73;0.60;;;;;;;37.35;25.53;99926.19;4889871;29;20073;-83
2021/07/11 06:28:20;;;;;;;0.80;0.80;;;;;;;37.71;24.24;99928.88;4891975;29;20063;-80
2021/07/11 06:30:46;;;;;;;0.50;0.50;;;;;;;37.97;23.38;99926.19;4896679;29;20048;-81
2021/07/11 06:33:12;;;;;;;0.77;0.57;;;;;;;38.46;23.68;99924.13;4898192;29;20048;-80
2021/07/11 06:35:39;;;;;;;0.60;0.60;;;;;;;38.46;23.10;99924.13;4897318;29;20040;-80
2021/07/11 06:38:05;;;;;;;0.60;0.60;;;;;;;38.40;22.47;99925.47;4869359;29;20087;-80
2021/07/11 06:40:31;;;;;;;0.50;0.50;;;;;;;38.51;22.25;99921.16;4877711;29;20136;-82
2021/07/11 06:42:58;;;;;;;0.60;0.60;;;;;;;38.71;21.84;99927.31;4898317;29;20462;-81
2021/07/11 06:45:24;;;;;;;0.60;0.60;;;;;;;38.71;22.35;99924.47;4892338;29;20074;-82
2021/07/11 06:47:50;;;;;;;0.65;0.65;;;;;;;39.22;21.41;99934.09;4895643;29;20041;-82
2021/07/11 06:50:17;;;;;;;0.60;0.60;;;;;;;38.95;21.84;99929.66;4882460;29;20068;-80
2021/07/11 06:52:45;;;;;;;0.60;0.60;;;;;;;39.16;22.55;99919.28;4868693;29;20041;-82
2021/07/11 06:55:13;;;;;;;0.70;0.70;;;;;;;39.21;22.19;99932.44;4894330;29;20040;-81
2021/07/11 06:57:39;;;;;;;0.60;0.60;;;;;;;39.10;22.53;99933.97;4894881;29;20582;-81
2021/07/11 07:00:08;;;;;;;0.60;0.60;;;;;;;39.17;22.65;99931.47;4898826;29;20048;-81
2021/07/11 07:02:34;;;;;;;0.70;0.70;;;;;;;39.51;22.49;99920.06;4891230;29;20412;-82
2021/07/11 07:05:01;;;;;;;0.60;0.60;;;;;;;39.65;21.93;99930.34;4900276;29;20040;-83
2021/07/11 07:07:27;;;;;;;0.90;0.80;;;;;;;39.86;22.62;99919.09;4884255;29;20063;-82
2021/07/11 07:09:53;;;;;;;0.70;0.70;;;;;;;40.10;21.89;99924.97;4894704;29;20077;-79
2021/07/11 07:12:20;;;;;;;0.70;0.70;;;;;;;40.37;21.91;99928.47;4895053;29;20127;-77
2021/07/11 07:14:46;;;;;;;0.65;0.65;;;;;;;40.33;22.25;99922.66;4888634;29;20048;-83
2021/07/11 07:17:12;;;;;;;0.63;0.63;;;;;;;40.35;21.14;99920.34;4859147;29;20062;-82
2021/07/11 07:19:39;;;;;;;0.80;0.70;;;;;;;40.64;21.27;99921.47;4880789;29;20048;-82
2021/07/11 07:22:06;;;;;;;0.70;0.70;;;;;;;40.22;21.69;99921.41;4908412;29;20036;-80
2021/07/11 07:24:32;;;;;;;0.70;0.70;;;;;;;39.98;21.74;99922.88;4909310;29;20093;-79
2021/07/11 07:26:59;;;;;;;0.75;0.75;;;;;;;40.57;21.12;99926.88;4891711;29;20530;-80
2021/07/11 07:29:25;;;;;;;0.80;0.80;;;;;;;40.59;21.57;99925.34;4891769;29;20040;-80
2021/07/11 07:31:51;;;;;;;0.80;0.80;;;;;;;40.90;21.29;99924.91;4887219;29;20059;-81
2021/07/11 07:34:18;;;;;;;0.73;0.73;;;;;;;41.16;20.88;99915.34;4906741;29;20094;-83
2021/07/11 07:36:45;;;;;;;0.73;0.73;;;;;;;41.36;20.57;99924.97;4897457;29;20048;-80
2021/07/11 07:39:11;;;;;;;0.70;0.70;;;;;;;41.58;20.36;99923.75;4901816;29;20115;-80
2021/07/11 07:41:37;;;;;;;0.80;0.80;;;;;;;41.31;21.11;99919.50;4896264;29;20067;-81
2021/07/11 07:44:05;;;;;;;0.75;0.75;;;;;;;41.66;20.27;99923.63;4911631;29;20064;-82
2021/07/11 07:46:31;;;;;;;0.90;0.90;;;;;;;41.48;20.33;99915.69;4908712;29;20043;-81
2021/07/11 07:48:57;;;;;;;1.48;1.23;;;;;;;41.73;19.80;99916.53;4892440;29;20047;-80
2021/07/11 07:51:24;;;;;;;0.90;0.90;;;;;;;41.59;21.00;99922.56;4909797;29;20515;-80
2021/07/11 07:53:50;;;;;;;0.80;0.80;;;;;;;41.67;20.28;99919.59;4903853;29;20124;-78
2021/07/11 07:56:16;;;;;;;0.75;0.75;;;;;;;41.31;21.06;99916.66;4876082;29;20047;-80
2021/07/11 07:58:42;;;;;;;0.80;0.80;;;;;;;41.82;20.96;99912.38;4908704;29;20454;-79
2021/07/11 08:01:08;;;;;;;1.60;1.05;;;;;;;42.46;20.31;99904.31;4907091;29;20059;-79
2021/07/11 08:03:35;;;;;;;0.80;0.80;;;;;;;42.85;19.40;99900.63;4910464;29;20135;-81
2021/07/11 08:06:02;;;;;;;0.88;0.88;;;;;;;42.71;19.64;99905.94;4862514;29;20092;-82
2021/07/11 08:08:28;;;;;;;0.80;0.80;;;;;;;42.82;19.50;99906.22;4899313;29;20099;-80
2021/07/11 08:10:54;;;;;;;0.80;0.80;;;;;;;42.74;19.28;99908.03;4906142;29;20075;-78
2021/07/11 08:13:24;;;;;;;0.80;0.80;;;;;;;42.75;19.02;99906.84;4911679;29;20052;-79
2021/07/11 08:15:50;;;;;;;0.80;0.80;;;;;;;42.91;19.05;99900.38;4894264;29;20047;-82
2021/07/11 08:18:17;;;;;;;0.90;0.90;;;;;;;43.06;18.45;99905.28;4909993;29;20126;-82
2021/07/11 08:20:43;;;;;;;0.93;0.93;;;;;;;42.85;18.92;99905.50;4893614;29;20454;-83
2021/07/11 08:23:09;;;;;;;1.00;1.00;;;;;;;43.38;18.29;99906.19;4892756;29;20052;-83
2021/07/11 08:25:36;;;;;;;0.70;0.70;;;;;;;42.72;18.43;99890.50;4877633;29;20036;-81
2021/07/11 08:28:02;;;;;;;0.93;0.90;;;;;;;42.56;18.83;99893.25;4907579;29;20047;-79
2021/07/11 08:30:29;;;;;;;0.70;0.70;;;;;;;43.00;19.25;99893.31;4908609;29;20507;-81
2021/07/11 08:32:55;;;;;;;1.00;1.00;;;;;;;42.96;18.75;99888.72;4902907;29;20051;-79
2021/07/11 08:35:21;;;;;;;1.00;1.00;;;;;;;43.49;18.64;99900.81;4903421;29;20055;-82
2021/07/11 08:37:48;;;;;;;0.93;0.93;;;;;;;43.67;18.35;99890.69;4881906;29;20691;-79
2021/07/11 08:40:14;;;;;;;0.90;0.90;;;;;;;43.58;18.57;99892.91;4903907;29;20060;-82
2021/07/11 08:42:41;;;;;;;0.80;0.80;;;;;;;42.89;18.54;99888.53;4904597;29;20057;-79
2021/07/11 08:45:10;;;;;;;0.98;0.98;;;;;;;42.97;18.98;99893.25;4903331;29;20147;-81
2021/07/11 08:47:38;;;;;;;0.90;0.90;;;;;;;43.30;18.90;99882.41;4895003;29;20135;-81
2021/07/11 08:50:08;;;;;;;0.93;0.80;;;;;;;43.18;18.72;99888.16;4905158;29;20072;-80
2021/07/11 08:52:35;;;;;;;1.00;1.00;;;;;;;43.23;19.07;99882.22;4915098;29;20036;-81
2021/07/11 08:55:10;;;;;;;0.90;0.90;;;;;;;43.40;18.54;99885.88;4879128;29;20060;-80
2021/07/11 08:57:37;;;;;;;0.80;0.80;;;;;;;43.76;18.45;99893.34;4902270;29;20064;-81
2021/07/11 09:00:07;;;;;;;0.90;0.90;;;;;;;43.89;18.19;99891.25;4912992;29;20075;-80
2021/07/11 09:02:33;;;;;;;0.90;0.90;;;;;;;43.93;18.18;99886.47;4894531;29;20100;-81
2021/07/11 09:05:00;;;;;;;1.00;1.00;;;;;;;44.10;18.22;99891.78;4896418;29;20488;-81
2021/07/11 09:07:26;;;;;;;0.88;0.88;;;;;;;44.11;18.40;99887.72;4893144;29;20089;-80
2021/07/11 09:09:58;;;;;;;0.80;0.80;;;;;;;43.97;18.69;99876.81;4893219;29;20091;-81
2021/07/11 09:12:24;;;;;;;0.93;0.90;;;;;;;44.67;17.64;99873.09;4897165;29;20097;-80
2021/07/11 09:14:52;;;;;;;0.93;0.93;;;;;;;45.20;18.01;99881.94;4913853;29;20032;-81
2021/07/11 09:17:18;;;;;;;0.75;0.75;;;;;;;45.18;17.50;99881.47;4899953;29;20065;-81
2021/07/11 09:19:50;;;;;;;0.80;0.80;;;;;;;44.13;18.18;99873.91;4906468;29;20131;-81
2021/07/11 09:22:18;;;;;;;;;;;;;;;45.05;17.72;99879.97;4901371;29;20556;-81
2021/07/11 09:24:58;;;;;;;1.00;1.00;;;;;;;45.22;17.07;99885.22;4910920;29;20049;-83
2021/07/11 09:27:31;;;;;;;0.80;0.80;;;;;;;45.47;17.13;99885.69;4919034;29;20054;-82
2021/07/11 09:30:04;;;;;;;0.85;0.85;;;;;;;45.38;17.68;99889.97;4907250;29;20032;-80
2021/07/11 09:32:32;;;;;;;0.47;0.47;;;;;;;43.86;18.74;99877.72;4911168;29;20213;-82
2021/07/11 09:35:20;;;;;;;0.30;0.30;;;;;;;43.57;19.14;99880.69;4913261;29;20032;-82
2021/07/11 09:37:49;;;;;;;0.30;0.30;;;;;;;43.57;19.45;99872.13;4880279;29;20112;-80
2021/07/11 09:40:17;;;;;;;0.82;0.82;;;;;;;43.72;19.61;99884.72;4910448;29;20444;-82
2021/07/11 09:42:46;;;;;;;0.25;0.20;;;;;;;44.12;18.85;99875.13;4916261;29;20048;-82
2021/07/11 09:45:19;;;;;;;0.90;0.90;;;;;;;44.44;17.65;99880.75;4887489;29;20036;-82
2021/07/11 09:47:48;;;;;;;0.20;0.20;;;;;;;43.75;18.31;99880.31;4893827;29;20052;-82
2021/07/11 09:50:22;;;;;;;0.38;0.22;;;;;;;42.55;19.95;99876.56;4901098;29;20051;-82
2021/07/11 09:52:55;;;;;;;0.73;0.73;;;;;;;43.38;18.66;99874.06;4883794;29;20040;-84
2021/07/11 09:55:30;;;;;;;0.80;0.80;;;;;;;43.88;18.33;99878.19;4916728;29;20124;-82
2021/07/11 09:58:11;;;;;;;0.90;0.90;;;;;;;43.83;18.37;99869.91;4914403;29;20044;-82
2021/07/11 10:00:40;;;;;;;0.80;0.80;;;;;;;43.84;18.73;99865.84;4892083;29;20058;-84
2021/07/11 10:03:13;;;;;;;1.55;1.45;;;;;;;44.87;17.41;99858.81;4921200;29;20075;-83
2021/07/11 10:05:42;;;;;;;1.10;1.10;;;;;;;44.63;17.79;99863.63;4896829;29;20037;-81
2021/07/11 10:08:09;;;;;;;1.30;1.30;;;;;;;44.79;18.12;99854.19;4917120;29;20050;-82
2021/07/11 10:10:37;;;;;;;1.42;1.33;;;;;;;44.78;18.37;99858.25;4895382;29;20055;-81
2021/07/11 10:13:04;;;;;;;0.90;0.90;;;;;;;44.70;16.84;99878.06;4895067;29;20499;-84
2021/07/11 10:15:32;;;;;;;0.80;0.80;;;;;;;44.39;17.22;99858.22;4897086;29;20119;-82
2021/07/11 10:18:03;;;;;;;0.77;0.77;;;;;;;44.19;17.49;99863.88;4912318;29;20045;-83
2021/07/11 10:20:38;;;;;;;1.67;1.35;;;;;;;44.99;17.03;99858.66;4902334;29;20063;-82
2021/07/11 10:23:06;;;;;;;0.85;0.85;;;;;;;45.28;17.03;99860.03;4913467;29;20613;-82
2021/07/11 10:25:34;;;;;;;0.98;0.98;;;;;;;45.21;16.77;99855.03;4884507;29;20083;-82
2021/07/11 10:28:13;;;;;;;0.85;0.80;;;;;;;45.31;16.65;99858.44;4915951;29;20059;-83
2021/07/11 10:30:47;;;;;;;0.90;0.90;;;;;;;44.66;18.21;99851.47;4918660;29;20063;-84
2021/07/11 10:33:15;;;;;;;0.73;0.70;;;;;;;44.67;17.36;99841.72;4892628;29;20060;-83
2021/07/11 10:36:13;;;;;;;0.80;0.80;;;;;;;44.64;17.33;99853.84;4905946;29;20218;-82
2021/07/11 10:38:54;;;;;;;0.70;0.70;;;;;;;44.93;17.66;99849.56;4905534;29;20083;-85
2021/07/11 10:41:24;;;;;;;1.05;0.93;;;;;;;44.98;17.06;99857.03;4922143;29;20143;-83
2021/07/11 10:44:21;;;;;;;0.70;0.70;;;;;;;45.10;17.02;99841.78;4904868;29;20068;-82
2021/07/11 10:46:59;;;;;;;0.80;0.80;;;;;;;44.93;16.98;99854.47;4915763;29;20089;-82
2021/07/11 10:49:30;;;;;;;0.80;0.80;;;;;;;44.73;16.99;99840.22;4922891;29;20040;-82
2021/07/11 10:52:01;;;;;;;0.70;0.70;;;;;;;44.41;17.30;99841.56;4915268;29;20051;-82
2021/07/11 10:54:35;;;;;;;1.60;1.57;;;;;;;44.18;17.54;99839.44;4918328;29;20040;-83
2021/07/11 10:57:12;;;;;;;0.80;0.80;;;;;;;44.82;16.79;99847.72;4922273;29;20304;-83
2021/07/11 10:59:40;;;;;;;0.15;0.15;;;;;;;42.35;19.73;99828.06;4910956;29;20047;-83
2021/07/11 11:02:16;;;;;;;0.40;0.20;;;;;;;41.17;21.17;99837.53;4906009;29;20048;-82
2021/07/11 11:05:04;;;;;;;0.77;0.77;;;;;;;42.10;19.40;99830.13;4934580;29;20045;-83
2021/07/11 11:08:10;;;;;;;0.82;0.82;;;;;;;42.89;19.10;99831.63;4886080;29;20422;-83
2021/07/11 11:10:38;;;;;;;0.80;0.80;;;;;;;43.78;18.58;99834.81;4921090;29;20083;-82
2021/07/11 11:13:12;;;;;;;0.85;0.85;;;;;;;43.53;18.14;99834.22;4918710;29;20542;-82
2021/07/11 11:15:41;;;;;;;1.10;0.88;;;;;;;44.17;17.65;99826.34;4917350;29;20075;-83
2021/07/11 11:18:46;;;;;;;0.82;0.82;;;;;;;43.93;17.91;99823.78;4920443;29;20052;-86
2021/07/11 11:21:18;;;;;;;0.10;0.10;;;;;;;42.33;19.31;99821.91;4898507;29;20052;-84
2021/07/11 11:23:52;;;;;;;0.85;0.85;;;;;;;42.47;19.08;99820.69;4915574;29;20051;-83
2021/07/11 11:26:29;;;;;;;0.70;0.70;;;;;;;43.07;18.72;99816.72;4902633;29;20608;-83
2021/07/11 11:28:58;;;;;;;1.20;1.10;;;;;;;42.70;19.79;99807.56;4925365;29;20044;-84
2021/07/11 11:31:30;;;;;;;0.70;0.70;;;;;;;42.32;19.54;99814.56;4908247;29;20173;-82
2021/07/11 11:34:02;;;;;;;0.85;0.85;;;;;;;42.84;19.33;99819.31;4918787;29;20529;-83
2021/07/11 11:36:30;;;;;;;0.70;0.70;;;;;;;43.75;18.71;99827.00;4916493;29;20087;-82
2021/07/11 11:39:04;;;;;;;1.45;0.80;;;;;;;44.23;18.16;99807.75;4915795;29;20050;-82
2021/07/11 11:41:31;;;;;;;0.70;0.70;;;;;;;44.06;18.11;99808.19;4905135;29;20040;-81
2021/07/11 11:44:16;;;;;;;0.93;0.70;;;;;;;44.58;17.43;99815.44;4888873;29;20076;-82